createdAt,value
2018-12-31T00:02:27.536Z,7.40
2018-12-31T00:04:57.345Z,7.40
2018-12-31T00:07:27.413Z,7.50
2018-12-31T00:09:57.245Z,7.50
2018-12-31T00:12:26.820Z,7.50
2018-12-31T00:14:56.660Z,7.50
2018-12-31T00:17:26.552Z,7.50
2018-12-31T00:19:56.357Z,7.50
2018-12-31T00:22:26.912Z,7.50
2018-12-31T00:24:57.035Z,7.40
2018-12-31T00:27:27.252Z,7.40
2018-12-31T00:29:56.793Z,7.40
2018-12-31T00:32:26.673Z,7.40
2018-12-31T00:34:56.230Z,7.40
2018-12-31T00:37:26.293Z,7.40
2018-12-31T00:39:55.827Z,7.30
2018-12-31T00:42:25.380Z,7.30
2018-12-31T00:44:55.212Z,7.30
2018-12-31T00:47:24.769Z,7.20
2018-12-31T00:49:54.629Z,7.20
2018-12-31T00:52:24.180Z,7.20
2018-12-31T00:54:54.253Z,7.20
2018-12-31T00:57:24.065Z,7.30
2018-12-31T00:59:53.604Z,7.30
2018-12-31T01:02:23.477Z,7.20
2018-12-31T01:04:53.041Z,7.20
2018-12-31T01:07:22.590Z,7.30
2018-12-31T01:09:52.136Z,7.30
2018-12-31T01:12:21.697Z,7.30
2018-12-31T01:14:51.243Z,7.30
2018-12-31T01:17:21.728Z,7.30
2018-12-31T01:19:51.293Z,7.30
2018-12-31T01:22:21.452Z,7.40
2018-12-31T01:24:51.325Z,7.40
2018-12-31T01:27:21.484Z,7.40
2018-12-31T01:29:51.097Z,7.40
2018-12-31T01:32:21.481Z,7.40
2018-12-31T01:34:51.331Z,7.40
2018-12-31T01:37:20.872Z,7.40
2018-12-31T01:39:51.071Z,7.40
2018-12-31T01:42:20.609Z,7.30
2018-12-31T01:44:50.487Z,7.40
2018-12-31T01:47:20.592Z,7.30
2018-12-31T01:49:50.459Z,7.30
2018-12-31T01:52:20.825Z,7.30
2018-12-31T01:54:50.637Z,7.30
2018-12-31T01:57:20.857Z,7.40
2018-12-31T01:59:51.081Z,7.30
2018-12-31T02:02:20.620Z,7.30
2018-12-31T02:04:50.448Z,7.40
2018-12-31T02:07:20.307Z,7.40
2018-12-31T02:09:49.847Z,7.40
2018-12-31T02:12:19.443Z,7.40
2018-12-31T02:14:49.644Z,7.40
2018-12-31T02:17:19.530Z,7.40
2018-12-31T02:19:49.356Z,7.40
2018-12-31T02:22:19.482Z,7.40
2018-12-31T02:24:49.296Z,7.40
2018-12-31T02:27:19.096Z,7.30
2018-12-31T02:29:48.652Z,7.30
2018-12-31T02:32:18.546Z,7.30
2018-12-31T02:34:49.081Z,7.30
2018-12-31T02:37:19.273Z,7.40
2018-12-31T02:39:49.076Z,7.40
2018-12-31T02:42:18.875Z,7.40
2018-12-31T02:44:49.008Z,7.40
2018-12-31T02:47:19.578Z,7.40
2018-12-31T02:49:49.216Z,7.40
2018-12-31T02:52:18.792Z,7.40
2018-12-31T02:54:48.341Z,7.40
2018-12-31T02:57:17.889Z,7.40
2018-12-31T02:59:47.770Z,7.30
2018-12-31T03:02:17.581Z,7.30
2018-12-31T03:04:47.801Z,7.30
2018-12-31T03:07:17.614Z,7.30
2018-12-31T03:09:47.572Z,7.30
2018-12-31T03:12:17.437Z,7.30
2018-12-31T03:14:47.244Z,7.40
2018-12-31T03:17:16.821Z,7.40
2018-12-31T03:19:46.748Z,7.40
2018-12-31T03:22:16.311Z,7.40
2018-12-31T03:24:46.400Z,7.40
2018-12-31T03:27:15.955Z,7.40
2018-12-31T03:29:45.804Z,7.40
2018-12-31T03:32:15.698Z,7.40
2018-12-31T03:34:45.328Z,7.40
2018-12-31T03:37:15.579Z,7.40
2018-12-31T03:39:45.405Z,7.50
2018-12-31T03:42:14.973Z,7.50
2018-12-31T03:44:44.866Z,7.50
2018-12-31T03:47:16.024Z,7.40
2018-12-31T03:49:45.833Z,7.50
2018-12-31T03:52:15.746Z,7.40
2018-12-31T03:54:45.588Z,7.40
2018-12-31T03:57:15.204Z,7.40
2018-12-31T03:59:44.764Z,7.50
2018-12-31T04:02:14.318Z,7.40
2018-12-31T04:04:43.933Z,7.40
2018-12-31T04:07:14.009Z,7.40
2018-12-31T04:09:43.569Z,7.50
2018-12-31T04:12:13.430Z,7.50
2018-12-31T04:14:43.836Z,7.40
2018-12-31T04:17:13.717Z,7.40
2018-12-31T04:19:43.537Z,7.40
2018-12-31T04:22:13.685Z,7.40
2018-12-31T04:24:43.491Z,7.50
2018-12-31T04:27:13.318Z,7.40
2018-12-31T04:29:43.115Z,7.50
2018-12-31T04:32:12.945Z,7.50
2018-12-31T04:34:43.357Z,7.50
2018-12-31T04:37:12.907Z,7.50
2018-12-31T04:39:43.068Z,7.50
2018-12-31T04:42:12.606Z,7.50
2018-12-31T04:44:42.517Z,7.50
2018-12-31T04:47:12.329Z,7.50
2018-12-31T04:49:42.209Z,7.50
2018-12-31T04:52:12.066Z,7.50
2018-12-31T04:54:42.249Z,7.50
2018-12-31T04:57:12.147Z,7.60
2018-12-31T04:59:41.975Z,7.50
2018-12-31T05:02:11.844Z,7.60
2018-12-31T05:04:41.697Z,7.60
2018-12-31T05:07:11.820Z,7.60
2018-12-31T05:09:41.679Z,7.60
2018-12-31T05:12:11.245Z,7.60
2018-12-31T05:14:40.788Z,7.60
2018-12-31T05:17:10.654Z,7.60
2018-12-31T05:19:40.536Z,7.60
2018-12-31T05:22:10.432Z,7.60
2018-12-31T05:24:39.988Z,7.60
2018-12-31T05:27:10.143Z,7.60
2018-12-31T05:29:40.525Z,7.60
2018-12-31T05:32:10.421Z,7.60
2018-12-31T05:34:40.660Z,7.60
2018-12-31T05:37:10.577Z,7.60
2018-12-31T05:39:41.051Z,7.60
2018-12-31T05:42:10.912Z,7.60
2018-12-31T05:44:40.727Z,7.60
2018-12-31T05:47:10.272Z,7.60
2018-12-31T05:49:39.820Z,7.60
2018-12-31T05:52:09.404Z,7.60
2018-12-31T05:54:39.249Z,7.60
2018-12-31T05:57:09.065Z,7.50
2018-12-31T05:59:38.630Z,7.50
2018-12-31T06:02:08.751Z,7.50
2018-12-31T06:04:38.648Z,7.50
2018-12-31T06:07:08.975Z,7.50
2018-12-31T06:09:38.836Z,7.50
2018-12-31T06:12:08.428Z,7.50
2018-12-31T06:14:38.253Z,7.40
2018-12-31T06:17:07.802Z,7.40
2018-12-31T06:19:37.661Z,7.40
2018-12-31T06:22:07.234Z,7.30
2018-12-31T06:24:37.236Z,7.40
2018-12-31T06:27:07.405Z,7.40
2018-12-31T06:29:37.221Z,7.40
2018-12-31T06:32:07.447Z,7.40
2018-12-31T06:34:37.557Z,7.40
2018-12-31T06:37:07.116Z,7.50
2018-12-31T06:39:36.897Z,7.50
2018-12-31T06:42:06.468Z,7.50
2018-12-31T06:44:36.697Z,7.50
2018-12-31T06:47:06.481Z,7.50
2018-12-31T06:49:36.029Z,7.50
2018-12-31T06:52:05.616Z,7.40
2018-12-31T06:54:35.747Z,7.50
2018-12-31T06:57:05.549Z,7.50
2018-12-31T06:59:36.025Z,7.50
2018-12-31T07:02:05.884Z,7.50
2018-12-31T07:04:36.047Z,7.50
2018-12-31T07:07:06.061Z,7.50
2018-12-31T07:09:36.240Z,7.50
2018-12-31T07:12:06.391Z,7.50
2018-12-31T07:14:36.262Z,7.50
2018-12-31T07:17:05.898Z,7.50
2018-12-31T07:19:35.792Z,7.50
2018-12-31T07:22:05.585Z,7.50
2018-12-31T07:24:35.132Z,7.50
2018-12-31T07:27:04.926Z,7.50
2018-12-31T07:29:34.473Z,7.50
2018-12-31T07:32:04.029Z,7.50
2018-12-31T07:34:33.836Z,7.50
2018-12-31T07:37:03.650Z,7.50
2018-12-31T07:39:33.461Z,7.50
2018-12-31T07:42:03.400Z,7.40
2018-12-31T07:44:33.216Z,7.50
2018-12-31T07:47:03.409Z,7.50
2018-12-31T07:49:33.529Z,7.50
2018-12-31T07:52:03.115Z,7.50
2018-12-31T07:54:32.724Z,7.50
2018-12-31T07:57:02.273Z,7.60
2018-12-31T07:59:31.858Z,7.60
2018-12-31T08:02:02.077Z,7.60
2018-12-31T08:04:31.985Z,7.60
2018-12-31T08:07:01.559Z,7.60
2018-12-31T08:09:31.396Z,7.60
2018-12-31T08:12:00.939Z,7.70
2018-12-31T08:14:31.024Z,7.70
2018-12-31T08:17:01.448Z,7.70
2018-12-31T08:19:31.356Z,7.70
2018-12-31T08:22:01.245Z,7.80
2018-12-31T08:24:30.794Z,7.70
2018-12-31T08:27:00.380Z,7.80
2018-12-31T08:29:30.202Z,7.70
2018-12-31T08:32:00.001Z,7.70
2018-12-31T08:34:29.569Z,7.70
2018-12-31T08:36:59.119Z,7.80
2018-12-31T08:39:28.704Z,7.80
2018-12-31T08:41:59.180Z,7.80
2018-12-31T08:44:28.728Z,7.80
2018-12-31T08:46:58.389Z,7.90
2018-12-31T08:49:29.129Z,7.90
2018-12-31T08:51:59.314Z,7.90
2018-12-31T08:54:29.428Z,8.00
2018-12-31T08:56:59.653Z,8.00
2018-12-31T08:59:29.200Z,8.00
2018-12-31T09:01:59.372Z,8.10
2018-12-31T09:04:29.360Z,8.10
2018-12-31T09:06:59.201Z,8.10
2018-12-31T09:09:29.401Z,8.10
2018-12-31T09:11:59.824Z,8.10
2018-12-31T09:14:29.411Z,8.20
2018-12-31T09:16:59.213Z,8.20
2018-12-31T09:19:29.064Z,8.20
2018-12-31T09:21:59.296Z,8.20
2018-12-31T09:24:29.417Z,8.30
2018-12-31T09:26:58.973Z,8.30
2018-12-31T09:29:28.928Z,8.30
2018-12-31T09:31:58.511Z,8.30
2018-12-31T09:34:28.061Z,8.40
2018-12-31T09:36:58.257Z,8.40
2018-12-31T09:39:28.184Z,8.40
2018-12-31T09:41:57.724Z,8.50
2018-12-31T09:44:27.908Z,8.60
2018-12-31T09:46:57.716Z,8.60
2018-12-31T09:49:28.174Z,8.60
2018-12-31T09:51:57.748Z,8.60
2018-12-31T09:54:27.974Z,8.60
2018-12-31T09:56:57.513Z,8.60
2018-12-31T09:59:27.692Z,8.70
2018-12-31T10:01:57.548Z,8.70
2018-12-31T10:04:27.098Z,8.70
2018-12-31T10:06:56.916Z,8.60
2018-12-31T10:09:26.789Z,8.60
2018-12-31T10:11:56.337Z,8.60
2018-12-31T10:14:25.906Z,8.60
2018-12-31T10:16:55.472Z,8.60
2018-12-31T10:19:25.535Z,8.70
2018-12-31T10:21:55.373Z,8.70
2018-12-31T10:24:24.937Z,8.70
2018-12-31T10:26:54.857Z,8.80
2018-12-31T10:29:24.781Z,8.80
2018-12-31T10:31:54.629Z,8.90
2018-12-31T10:34:24.740Z,8.90
2018-12-31T10:36:55.884Z,8.90
2018-12-31T10:39:26.400Z,8.90
2018-12-31T10:41:56.724Z,8.90
2018-12-31T10:44:27.061Z,9.00
2018-12-31T10:46:56.655Z,9.00
2018-12-31T10:49:26.960Z,9.00
2018-12-31T10:51:56.524Z,9.00
2018-12-31T10:54:26.128Z,9.00
2018-12-31T10:56:56.000Z,9.00
2018-12-31T10:59:26.231Z,9.00
2018-12-31T11:01:55.779Z,9.00
2018-12-31T11:04:25.845Z,9.00
2018-12-31T11:06:56.916Z,9.10
2018-12-31T11:09:26.804Z,9.10
2018-12-31T11:11:56.665Z,9.10
2018-12-31T11:14:26.516Z,9.10
2018-12-31T11:16:56.441Z,9.20
2018-12-31T11:19:26.886Z,9.20
2018-12-31T11:21:57.082Z,9.20
2018-12-31T11:24:27.210Z,9.20
2018-12-31T11:26:57.122Z,9.20
2018-12-31T11:29:27.132Z,9.30
2018-12-31T11:31:57.064Z,9.30
2018-12-31T11:34:26.944Z,9.30
2018-12-31T11:36:56.878Z,9.30
2018-12-31T11:39:26.774Z,9.40
2018-12-31T11:41:58.070Z,9.40
2018-12-31T11:44:28.152Z,9.30
2018-12-31T11:46:58.373Z,9.20
2018-12-31T11:49:28.251Z,9.20
2018-12-31T11:51:58.179Z,9.30
2018-12-31T11:54:28.010Z,9.30
2018-12-31T11:56:57.934Z,9.40
2018-12-31T11:59:28.148Z,9.40
2018-12-31T12:01:58.037Z,9.40
2018-12-31T12:04:28.221Z,9.40
2018-12-31T12:06:58.805Z,9.40
2018-12-31T12:09:28.691Z,9.40
2018-12-31T12:11:58.533Z,9.40
2018-12-31T12:14:28.340Z,9.40
2018-12-31T12:16:58.461Z,9.40
2018-12-31T12:19:28.577Z,9.40
2018-12-31T12:21:58.380Z,9.50
2018-12-31T12:24:33.988Z,9.50
2018-12-31T12:27:03.801Z,9.40
2018-12-31T12:29:33.353Z,9.40
2018-12-31T12:32:03.279Z,9.40
2018-12-31T12:34:33.064Z,9.40
2018-12-31T12:37:02.986Z,9.40
2018-12-31T12:39:32.872Z,9.50
2018-12-31T12:42:02.776Z,9.50
2018-12-31T12:44:32.624Z,9.50
2018-12-31T12:47:02.561Z,9.50
2018-12-31T12:49:32.987Z,9.50
2018-12-31T12:52:02.598Z,9.60
2018-12-31T12:54:32.792Z,9.60
2018-12-31T12:57:03.016Z,9.60
2018-12-31T12:59:33.461Z,9.60
2018-12-31T13:02:03.453Z,9.60
2018-12-31T13:04:33.604Z,9.60
2018-12-31T13:07:03.272Z,9.50
2018-12-31T13:09:33.169Z,9.50
2018-12-31T13:12:03.109Z,9.50
2018-12-31T13:14:33.436Z,9.50
2018-12-31T13:17:03.232Z,9.50
2018-12-31T13:19:33.597Z,9.50
2018-12-31T13:22:09.929Z,9.50
2018-12-31T13:24:39.477Z,9.50
2018-12-31T13:27:10.487Z,9.50
2018-12-31T13:29:41.104Z,9.50
2018-12-31T13:32:15.820Z,9.50
2018-12-31T13:34:53.117Z,9.50
2018-12-31T13:37:23.940Z,9.50
2018-12-31T13:39:53.824Z,9.50
2018-12-31T13:42:23.369Z,9.50
2018-12-31T13:45:00.345Z,9.50
2018-12-31T13:47:30.224Z,9.50
2018-12-31T13:50:00.086Z,9.60
2018-12-31T13:52:30.367Z,9.50
2018-12-31T13:55:00.689Z,9.50
2018-12-31T13:57:35.036Z,9.60
2018-12-31T14:00:05.664Z,9.60
2018-12-31T14:02:36.436Z,9.50
2018-12-31T14:05:08.144Z,9.50
2018-12-31T14:07:44.285Z,9.50
2018-12-31T14:10:13.865Z,9.50
2018-12-31T14:12:44.004Z,9.50
2018-12-31T14:15:13.877Z,9.50
2018-12-31T14:17:44.091Z,9.50
2018-12-31T14:20:17.844Z,9.50
2018-12-31T14:22:47.681Z,9.50
2018-12-31T14:25:17.898Z,9.50
2018-12-31T14:27:55.765Z,9.50
2018-12-31T14:30:25.760Z,9.50
2018-12-31T14:32:55.624Z,9.50
2018-12-31T14:35:25.536Z,9.50
2018-12-31T14:37:55.812Z,9.50
2018-12-31T14:40:26.388Z,9.50
2018-12-31T14:42:55.944Z,9.50
2018-12-31T14:45:25.817Z,9.50
2018-12-31T14:47:55.965Z,9.50
2018-12-31T14:50:25.827Z,9.50
2018-12-31T14:52:55.763Z,9.50
2018-12-31T14:55:25.572Z,9.40
2018-12-31T14:57:55.153Z,9.40
2018-12-31T15:00:25.185Z,9.40
2018-12-31T15:02:54.989Z,9.40
2018-12-31T15:05:24.575Z,9.40
2018-12-31T15:07:54.807Z,9.40
2018-12-31T15:10:25.061Z,9.40
2018-12-31T15:12:55.721Z,9.40
2018-12-31T15:15:25.281Z,9.40
2018-12-31T15:17:54.861Z,9.40
2018-12-31T15:20:24.649Z,9.40
2018-12-31T15:22:54.613Z,9.40
2018-12-31T15:25:24.229Z,9.30
2018-12-31T15:27:54.060Z,9.30
2018-12-31T15:30:23.966Z,9.30
2018-12-31T15:32:53.804Z,9.30
2018-12-31T15:35:23.625Z,9.20
2018-12-31T15:37:53.539Z,9.20
2018-12-31T15:40:23.701Z,9.20
2018-12-31T15:43:01.818Z,9.20
2018-12-31T15:45:33.253Z,9.20
2018-12-31T15:48:03.489Z,9.20
2018-12-31T15:50:33.069Z,9.20
2018-12-31T15:53:03.010Z,9.20
2018-12-31T15:55:32.561Z,9.20
2018-12-31T15:58:03.274Z,9.20
2018-12-31T16:00:32.857Z,9.10
2018-12-31T16:03:02.781Z,9.10
2018-12-31T16:05:32.666Z,9.10
2018-12-31T16:08:02.786Z,9.10
2018-12-31T16:10:32.939Z,9.10
2018-12-31T16:13:02.889Z,9.10
2018-12-31T16:15:41.684Z,9.10
2018-12-31T16:18:11.533Z,9.10
2018-12-31T16:20:41.973Z,9.10
2018-12-31T16:23:12.201Z,9.10
2018-12-31T16:25:42.117Z,9.10
2018-12-31T16:28:12.220Z,9.10
2018-12-31T16:30:42.718Z,9.10
2018-12-31T16:33:13.279Z,9.10
2018-12-31T16:35:43.745Z,9.10
2018-12-31T16:38:13.652Z,9.10
2018-12-31T16:40:43.838Z,9.10
2018-12-31T16:43:13.917Z,9.10
2018-12-31T16:45:43.619Z,9.10
2018-12-31T16:48:13.247Z,9.10
2018-12-31T16:50:49.041Z,9.10
2018-12-31T16:53:19.141Z,9.00
2018-12-31T16:55:48.963Z,9.00
2018-12-31T16:58:19.068Z,9.00
2018-12-31T17:00:49.293Z,9.00
2018-12-31T17:03:19.408Z,9.00
2018-12-31T17:05:49.633Z,9.00
2018-12-31T17:08:19.440Z,9.00
2018-12-31T17:10:49.964Z,9.00
2018-12-31T17:13:19.777Z,9.00
2018-12-31T17:15:49.406Z,9.00
2018-12-31T17:18:19.785Z,9.00
2018-12-31T17:20:49.624Z,9.00
2018-12-31T17:23:19.544Z,9.00
2018-12-31T17:25:54.676Z,9.00
2018-12-31T17:28:25.203Z,9.00
2018-12-31T17:30:55.427Z,9.00
2018-12-31T17:33:25.318Z,9.00
2018-12-31T17:35:55.063Z,9.00
2018-12-31T17:38:25.281Z,9.00
2018-12-31T17:40:55.792Z,9.00
2018-12-31T17:43:25.371Z,9.00
2018-12-31T17:45:54.968Z,9.00
2018-12-31T17:48:25.065Z,9.00
2018-12-31T17:50:55.236Z,9.00
2018-12-31T17:53:25.200Z,9.00
2018-12-31T17:55:55.301Z,9.00
2018-12-31T17:58:24.860Z,9.00
2018-12-31T18:00:54.819Z,9.00
2018-12-31T18:03:24.806Z,9.00
2018-12-31T18:05:54.408Z,9.00
2018-12-31T18:08:23.965Z,9.00
2018-12-31T18:10:54.173Z,9.00
2018-12-31T18:13:23.724Z,9.00
2018-12-31T18:15:53.965Z,9.00
2018-12-31T18:18:23.887Z,9.00
2018-12-31T18:20:53.785Z,9.00
2018-12-31T18:23:23.340Z,9.00
2018-12-31T18:25:53.248Z,9.00
2018-12-31T18:28:22.803Z,9.00
2018-12-31T18:30:53.272Z,9.00
2018-12-31T18:33:23.465Z,9.00
2018-12-31T18:35:53.277Z,9.00
2018-12-31T18:38:23.497Z,9.00
2018-12-31T18:40:53.419Z,8.90
2018-12-31T18:43:23.020Z,9.00
2018-12-31T18:45:53.541Z,8.90
2018-12-31T18:48:23.128Z,8.90
2018-12-31T18:50:52.921Z,8.90
2018-12-31T18:53:24.810Z,8.90
2018-12-31T18:55:54.551Z,8.90
2018-12-31T18:58:24.646Z,8.90
2018-12-31T19:01:01.164Z,8.90
2018-12-31T19:03:31.748Z,8.90
2018-12-31T19:06:01.372Z,8.90
2018-12-31T19:08:33.144Z,8.90
2018-12-31T19:11:03.445Z,8.90
2018-12-31T19:13:32.988Z,8.90
2018-12-31T19:16:02.652Z,8.90
2018-12-31T19:18:45.705Z,8.90
2018-12-31T19:21:15.778Z,8.90
2018-12-31T19:23:45.356Z,8.90
2018-12-31T19:26:14.964Z,8.90
2018-12-31T19:28:44.860Z,8.90
2018-12-31T19:31:14.417Z,8.90
2018-12-31T19:33:44.350Z,8.90
2018-12-31T19:36:14.189Z,8.90
2018-12-31T19:38:44.248Z,8.90
2018-12-31T19:41:13.902Z,8.90
2018-12-31T19:43:43.732Z,8.90
2018-12-31T19:46:13.914Z,8.90
2018-12-31T19:48:43.871Z,8.90
2018-12-31T19:51:13.445Z,8.90
2018-12-31T19:53:46.588Z,8.90
2018-12-31T19:56:16.721Z,8.90
2018-12-31T19:58:46.936Z,8.90
2018-12-31T20:01:16.522Z,8.90
2018-12-31T20:03:46.365Z,8.90
2018-12-31T20:06:15.944Z,8.90
2018-12-31T20:08:45.545Z,8.90
2018-12-31T20:11:15.473Z,8.90
2018-12-31T20:13:45.101Z,8.90
2018-12-31T20:16:15.317Z,8.90
2018-12-31T20:18:44.924Z,8.90
2018-12-31T20:21:15.333Z,8.90
2018-12-31T20:23:47.746Z,8.90
2018-12-31T20:26:17.950Z,8.90
2018-12-31T20:28:47.847Z,8.90
2018-12-31T20:31:17.761Z,8.90
2018-12-31T20:33:53.593Z,8.90
2018-12-31T20:36:23.816Z,8.90
2018-12-31T20:38:54.506Z,8.80
2018-12-31T20:41:24.473Z,8.80
2018-12-31T20:43:54.034Z,8.80
2018-12-31T20:46:24.203Z,8.80
2018-12-31T20:48:53.796Z,8.80
2018-12-31T20:51:30.829Z,8.80
2018-12-31T20:54:00.528Z,8.80
2018-12-31T20:56:30.117Z,8.80
2018-12-31T20:58:59.745Z,8.80
2018-12-31T21:01:31.069Z,8.80
2018-12-31T21:04:01.077Z,8.80
2018-12-31T21:06:30.644Z,8.80
2018-12-31T21:09:00.253Z,8.80
2018-12-31T21:11:29.885Z,8.80
2018-12-31T21:14:00.121Z,8.80
2018-12-31T21:16:30.433Z,8.70
2018-12-31T21:19:00.012Z,8.70
2018-12-31T21:21:29.944Z,8.80
2018-12-31T21:24:00.200Z,8.80
2018-12-31T21:26:30.428Z,8.80
2018-12-31T21:29:02.599Z,8.80
2018-12-31T21:31:33.022Z,8.80
2018-12-31T21:34:03.557Z,8.80
2018-12-31T21:36:34.554Z,8.80
2018-12-31T21:39:06.571Z,8.80
2018-12-31T21:41:37.649Z,8.80
2018-12-31T21:44:08.594Z,8.70
2018-12-31T21:46:38.296Z,8.70
2018-12-31T21:49:08.309Z,8.70
2018-12-31T21:51:38.529Z,8.70
2018-12-31T21:54:08.124Z,8.70
2018-12-31T21:56:37.684Z,8.70
2018-12-31T21:59:07.235Z,8.70
2018-12-31T22:01:36.892Z,8.70
2018-12-31T22:04:06.874Z,8.70
2018-12-31T22:06:36.761Z,8.80
2018-12-31T22:09:07.720Z,8.80
2018-12-31T22:11:37.949Z,8.80
2018-12-31T22:14:08.057Z,8.70
2018-12-31T22:16:38.162Z,8.70
2018-12-31T22:19:07.825Z,8.70
2018-12-31T22:21:37.861Z,8.70
2018-12-31T22:24:07.713Z,8.70
2018-12-31T22:26:37.361Z,8.70
2018-12-31T22:29:07.237Z,8.70
2018-12-31T22:31:37.097Z,8.70
2018-12-31T22:34:06.961Z,8.70
2018-12-31T22:36:36.916Z,8.70
2018-12-31T22:39:08.637Z,8.70
2018-12-31T22:41:39.053Z,8.70
2018-12-31T22:44:09.321Z,8.70
2018-12-31T22:46:39.193Z,8.70
2018-12-31T22:49:09.093Z,8.70
2018-12-31T22:51:39.037Z,8.70
2018-12-31T22:54:08.689Z,8.70
2018-12-31T22:56:38.737Z,8.70
2018-12-31T22:59:08.603Z,8.70
2018-12-31T23:01:38.180Z,8.70
2018-12-31T23:04:08.169Z,8.70
2018-12-31T23:06:38.654Z,8.70
2018-12-31T23:09:11.940Z,8.60
2018-12-31T23:11:41.874Z,8.60
2018-12-31T23:14:11.812Z,8.70
2018-12-31T23:16:44.956Z,8.60
2018-12-31T23:19:15.073Z,8.60
2018-12-31T23:21:44.912Z,8.60
2018-12-31T23:24:14.916Z,8.60
2018-12-31T23:26:44.480Z,8.60
2018-12-31T23:29:14.088Z,8.50
2018-12-31T23:31:44.072Z,8.50
2018-12-31T23:34:13.893Z,8.50
2018-12-31T23:36:43.814Z,8.50
2018-12-31T23:39:14.019Z,8.60
2018-12-31T23:41:43.833Z,8.60
2018-12-31T23:44:13.732Z,8.60
2018-12-31T23:46:44.066Z,8.60
2018-12-31T23:49:14.402Z,8.60
2018-12-31T23:51:44.645Z,8.60
2018-12-31T23:54:14.437Z,8.50
2018-12-31T23:56:44.323Z,8.50
2018-12-31T23:59:14.438Z,8.50
